Time;durP1;ratioP1;P1;durP2;ratioP2;P2;SDS_P1;SDS_P2;PMS_P1;PMS_P2;Temp;Humidity;BMP_temperature;BMP_pressure;BME280_temperature;BME280_humidity;BME280_pressure;Samples;Min_cycle;Max_cycle;Signal;HPM_P1;HPM_P2
2021/01/22 00:01:33;;;;;;;8.38;1.40;;;;;;;4.08;94.15;98591.44;4913751;29;20036;-80
2021/01/22 00:03:58;;;;;;;4.68;1.50;;;;;;;4.13;94.53;98586.63;4904342;29;20029;-75
2021/01/22 00:06:24;;;;;;;8.95;1.20;;;;;;;4.19;94.45;98567.81;4910702;29;20040;-77
2021/01/22 00:08:50;;;;;;;5.90;1.33;;;;;;;4.22;95.07;98557.13;4899449;29;20088;-77
2021/01/22 00:11:16;;;;;;;4.05;1.83;;;;;;;4.28;94.92;98556.47;4903395;29;20055;-77
2021/01/22 00:13:42;;;;;;;9.30;1.60;;;;;;;4.30;94.66;98530.38;4900592;29;20032;-78
2021/01/22 00:16:07;;;;;;;4.22;1.60;;;;;;;4.37;94.73;98520.13;4890201;29;20044;-75
2021/01/22 00:18:33;;;;;;;4.53;1.75;;;;;;;4.38;94.43;98535.56;4905788;29;20493;-76
2021/01/22 00:20:58;;;;;;;7.82;1.58;;;;;;;4.36;94.59;98527.13;4889510;29;20067;-75
2021/01/22 00:23:24;;;;;;;8.07;1.80;;;;;;;4.30;94.55;98507.00;4911134;29;20088;-76
2021/01/22 00:25:53;;;;;;;8.15;1.70;;;;;;;4.33;94.85;98513.66;4914719;29;20061;-77
2021/01/22 00:28:19;;;;;;;8.32;1.90;;;;;;;4.34;95.22;98505.72;4909999;29;20040;-75
2021/01/22 00:30:45;;;;;;;5.47;2.00;;;;;;;4.33;95.50;98498.09;4918201;29;20040;-76
2021/01/22 00:33:10;;;;;;;8.88;1.70;;;;;;;4.36;94.97;98479.59;4914971;29;20603;-75
2021/01/22 00:35:36;;;;;;;7.75;1.75;;;;;;;4.39;95.58;98472.31;4928828;29;20091;-74
2021/01/22 00:38:02;;;;;;;9.85;1.88;;;;;;;4.41;95.15;98492.91;4925857;29;20087;-76
2021/01/22 00:40:28;;;;;;;4.10;1.75;;;;;;;4.38;95.94;98460.28;4919240;29;20449;-75
2021/01/22 00:42:54;;;;;;;7.05;1.65;;;;;;;4.40;95.73;98449.75;4920487;29;20033;-77
2021/01/22 00:45:20;;;;;;;7.47;2.10;;;;;;;4.43;96.02;98459.81;4879953;29;20044;-75
2021/01/22 00:47:45;;;;;;;6.20;1.83;;;;;;;4.53;96.21;98465.63;4895852;29;20136;-76
2021/01/22 00:50:11;;;;;;;5.38;2.00;;;;;;;4.53;96.06;98452.66;4913125;29;20138;-76
2021/01/22 00:52:37;;;;;;;6.90;1.75;;;;;;;4.58;96.26;98434.00;4922499;29;20119;-72
2021/01/22 00:55:04;;;;;;;11.85;1.80;;;;;;;4.65;95.60;98438.38;4900056;29;20032;-76
2021/01/22 00:57:42;;;;;;;6.18;1.50;;;;;;;4.72;95.92;98438.50;4914988;29;20032;-74
2021/01/22 01:00:09;;;;;;;4.75;1.80;;;;;;;4.76;96.04;98413.03;4910655;29;20047;-76
2021/01/22 01:02:41;;;;;;;6.10;1.98;;;;;;;4.80;96.41;98432.47;4907999;29;20602;-75
2021/01/22 01:05:07;;;;;;;3.55;1.50;;;;;;;4.95;96.14;98436.00;4889846;29;20131;-76
2021/01/22 01:07:34;;;;;;;2.88;1.50;;;;;;;4.98;95.93;98409.72;4898988;29;20070;-75
2021/01/22 01:10:00;;;;;;;5.13;1.55;;;;;;;4.95;96.04;98378.84;4902118;29;20039;-76
2021/01/22 01:12:44;;;;;;;4.35;2.00;;;;;;;5.01;96.57;98411.16;4917970;29;20518;-74
2021/01/22 01:15:29;;;;;;;8.43;1.90;;;;;;;5.11;96.65;98421.38;4910171;29;20051;-77
2021/01/22 01:17:55;;;;;;;4.60;1.60;;;;;;;5.13;96.61;98415.03;4895993;29;20032;-74
2021/01/22 01:20:21;;;;;;;3.17;1.40;;;;;;;5.08;96.81;98386.13;4895061;29;20100;-78
2021/01/22 01:22:47;;;;;;;4.18;1.65;;;;;;;5.14;96.67;98379.44;4889939;29;20450;-76
2021/01/22 01:25:12;;;;;;;6.43;1.73;;;;;;;5.32;96.65;98389.59;4901085;29;20040;-78
2021/01/22 01:27:38;;;;;;;5.18;1.50;;;;;;;5.55;96.03;98376.63;4900879;29;20077;-76
2021/01/22 01:30:05;;;;;;;4.95;1.48;;;;;;;5.65;95.94;98372.84;4933847;29;20028;-76
2021/01/22 01:32:30;;;;;;;6.38;1.20;;;;;;;5.78;95.46;98363.63;4936913;29;20138;-76
2021/01/22 01:34:56;;;;;;;2.83;1.38;;;;;;;6.09;94.24;98365.38;4918934;29;20175;-75
2021/01/22 01:37:24;;;;;;;2.55;1.10;;;;;;;6.22;93.41;98361.19;4912462;29;20167;-77
2021/01/22 01:39:56;;;;;;;3.65;1.00;;;;;;;6.37;92.94;98347.41;4903906;29;20048;-77
2021/01/22 01:42:29;;;;;;;1.58;0.90;;;;;;;6.55;91.86;98347.84;4927483;29;20061;-79
2021/01/22 01:45:02;;;;;;;1.83;0.98;;;;;;;6.66;91.25;98345.78;4891375;29;20039;-78
2021/01/22 01:47:32;;;;;;;2.55;1.10;;;;;;;6.62;90.89;98335.72;4921667;29;20095;-77
2021/01/22 01:49:58;;;;;;;1.70;0.90;;;;;;;6.59;91.19;98324.84;4889066;29;20115;-77
2021/01/22 01:52:24;;;;;;;1.42;0.80;;;;;;;6.73;90.60;98338.88;4924707;29;20039;-76
2021/01/22 01:54:50;;;;;;;2.13;1.20;;;;;;;6.63;91.27;98320.91;4931527;29;20188;-77
2021/01/22 01:57:16;;;;;;;3.10;1.10;;;;;;;6.64;91.42;98330.34;4908829;29;20451;-76
2021/01/22 01:59:42;;;;;;;3.00;1.35;;;;;;;6.65;91.35;98334.56;4915939;29;20121;-77
2021/01/22 02:02:09;;;;;;;2.22;1.00;;;;;;;6.57;91.77;98319.00;4916388;29;20043;-76
2021/01/22 02:04:35;;;;;;;1.30;0.85;;;;;;;6.58;92.04;98312.84;4903472;29;20031;-75
2021/01/22 02:07:00;;;;;;;2.80;1.00;;;;;;;6.63;91.84;98310.50;4924943;29;20028;-79
2021/01/22 02:09:27;;;;;;;2.92;1.00;;;;;;;6.68;91.43;98302.13;4906704;29;20040;-77
2021/01/22 02:11:53;;;;;;;1.95;0.93;;;;;;;6.75;91.08;98303.81;4907398;29;20064;-75
2021/01/22 02:14:19;;;;;;;2.10;1.10;;;;;;;6.77;90.68;98306.25;4908464;29;20044;-77
2021/01/22 02:16:44;;;;;;;2.30;0.90;;;;;;;6.77;91.23;98295.84;4909175;29;20047;-76
2021/01/22 02:19:12;;;;;;;2.35;0.93;;;;;;;6.85;91.19;98303.53;4914638;29;20040;-74
2021/01/22 02:21:38;;;;;;;1.77;0.93;;;;;;;6.87;90.59;98285.13;4910341;29;20115;-74
2021/01/22 02:24:15;;;;;;;2.13;1.00;;;;;;;6.91;90.56;98297.63;4904402;29;20498;-75
2021/01/22 02:26:56;;;;;;;3.58;1.20;;;;;;;6.92;90.60;98290.59;4897925;29;20091;-79
2021/01/22 02:29:23;;;;;;;1.80;0.90;;;;;;;6.92;91.20;98283.59;4899987;29;20031;-75
2021/01/22 02:31:52;;;;;;;1.50;1.00;;;;;;;6.95;90.73;98287.63;4882590;29;20043;-77
2021/01/22 02:34:22;;;;;;;1.70;0.88;;;;;;;7.04;90.58;98283.13;4902108;29;20698;-76
2021/01/22 02:36:48;;;;;;;1.10;0.70;;;;;;;6.99;90.16;98281.06;4944586;29;20047;-77
2021/01/22 02:39:17;;;;;;;1.77;0.85;;;;;;;7.02;90.34;98280.69;4927142;29;20103;-77
2021/01/22 02:41:44;;;;;;;1.67;1.00;;;;;;;7.01;90.33;98274.66;4910674;29;20040;-77
2021/01/22 02:44:10;;;;;;;1.33;0.70;;;;;;;7.07;90.18;98267.91;4950235;29;20461;-76
2021/01/22 02:46:37;;;;;;;4.13;0.60;;;;;;;7.13;89.64;98261.97;4951073;29;20039;-76
2021/01/22 02:49:03;;;;;;;1.23;0.60;;;;;;;7.07;89.75;98257.50;4913141;29;20091;-76
2021/01/22 02:51:29;;;;;;;3.20;0.82;;;;;;;7.15;89.85;98259.97;4935258;29;20043;-76
2021/01/22 02:53:54;;;;;;;3.05;1.02;;;;;;;7.17;89.72;98249.38;4918663;29;20052;-76
2021/01/22 02:56:36;;;;;;;1.15;0.77;;;;;;;7.21;89.99;98243.59;4902823;29;20036;-76
2021/01/22 02:59:06;;;;;;;0.85;0.60;;;;;;;7.18;89.99;98236.16;4940467;29;20222;-77
2021/01/22 03:01:39;;;;;;;1.33;0.63;;;;;;;7.09;90.17;98223.41;4918475;29;20043;-76
2021/01/22 03:04:09;;;;;;;0.60;0.60;;;;;;;7.17;90.09;98221.47;4904675;29;20040;-76
2021/01/22 03:06:42;;;;;;;0.93;0.50;;;;;;;7.18;89.80;98217.09;4902665;29;20095;-76
2021/01/22 03:09:18;;;;;;;0.50;0.50;;;;;;;7.25;89.44;98217.13;4926241;29;20055;-74
2021/01/22 03:11:49;;;;;;;3.03;0.82;;;;;;;7.32;89.24;98203.16;4924077;29;20517;-76
2021/01/22 03:14:16;;;;;;;0.80;0.50;;;;;;;7.33;89.00;98199.56;4914248;29;20043;-78
2021/01/22 03:16:42;;;;;;;2.35;0.60;;;;;;;7.33;89.19;98206.59;4880392;29;20036;-77
2021/01/22 03:19:07;;;;;;;0.93;0.68;;;;;;;7.35;89.02;98196.78;4880181;29;20048;-77
2021/01/22 03:21:33;;;;;;;2.47;0.60;;;;;;;7.38;88.73;98189.41;4880448;29;20040;-77
2021/01/22 03:23:59;;;;;;;1.67;0.50;;;;;;;7.39;88.61;98201.44;4907486;29;20040;-77
2021/01/22 03:26:25;;;;;;;1.85;0.60;;;;;;;7.45;88.01;98181.59;4926514;28;20035;-78
2021/01/22 03:28:51;;;;;;;0.85;0.50;;;;;;;7.44;88.49;98182.63;4913152;29;20401;-77
2021/01/22 03:31:16;;;;;;;1.17;0.60;;;;;;;7.42;88.63;98192.41;4913773;29;20043;-76
2021/01/22 03:33:44;;;;;;;0.90;0.55;;;;;;;7.46;87.81;98195.44;4914273;29;20036;-78
2021/01/22 03:36:09;;;;;;;1.27;0.57;;;;;;;7.51;88.01;98182.66;4929729;29;20032;-76
2021/01/22 03:38:35;;;;;;;0.43;0.43;;;;;;;7.50;88.26;98176.66;4940292;29;20036;-76
2021/01/22 03:41:00;;;;;;;1.30;0.77;;;;;;;7.52;88.29;98177.25;4933040;29;20447;-77
2021/01/22 03:43:26;;;;;;;0.90;0.50;;;;;;;7.51;88.34;98173.03;4933448;29;20506;-78
2021/01/22 03:45:52;;;;;;;1.45;0.70;;;;;;;7.65;87.53;98173.94;4931961;29;20032;-77
2021/01/22 03:48:18;;;;;;;0.95;0.70;;;;;;;7.68;87.07;98160.50;4917961;29;20036;-77
2021/01/22 03:50:43;;;;;;;0.60;0.60;;;;;;;7.71;87.12;98161.94;4930131;29;20081;-75
2021/01/22 03:53:10;;;;;;;2.05;0.70;;;;;;;7.69;87.09;98166.53;4917371;29;20047;-77
2021/01/22 03:55:35;;;;;;;2.08;0.55;;;;;;;7.71;87.06;98170.56;4906647;29;20047;-77
2021/01/22 03:58:01;;;;;;;1.80;0.80;;;;;;;7.79;87.35;98169.59;4912492;29;20557;-77
2021/01/22 04:00:27;;;;;;;1.48;0.50;;;;;;;7.70;87.84;98168.13;4919188;29;20030;-77
2021/01/22 04:02:52;;;;;;;3.17;0.70;;;;;;;7.64;88.53;98168.91;4917251;29;20036;-77
2021/01/22 04:05:18;;;;;;;1.83;0.60;;;;;;;7.68;88.17;98160.50;4932711;29;20071;-76
2021/01/22 04:07:43;;;;;;;2.50;0.52;;;;;;;7.62;88.95;98152.66;4934259;29;20098;-77
2021/01/22 04:10:09;;;;;;;1.83;0.60;;;;;;;7.64;88.70;98148.84;4901895;29;20031;-75
2021/01/22 04:12:35;;;;;;;2.85;0.70;;;;;;;7.62;89.13;98157.84;4914130;29;20028;-79
2021/01/22 04:15:05;;;;;;;3.45;0.80;;;;;;;7.58;89.24;98152.22;4916557;29;20442;-77
2021/01/22 04:17:31;;;;;;;2.72;0.73;;;;;;;7.62;88.95;98143.00;4901447;29;20205;-77
2021/01/22 04:19:57;;;;;;;1.52;0.60;;;;;;;7.62;89.27;98157.84;4880212;29;20131;-77
2021/01/22 04:22:23;;;;;;;2.60;1.00;;;;;;;7.51;90.13;98148.75;4867663;29;20085;-77
2021/01/22 04:24:49;;;;;;;0.80;0.60;;;;;;;7.45;91.06;98152.91;4923209;29;20029;-76
2021/01/22 04:27:14;;;;;;;1.88;0.40;;;;;;;7.51;90.42;98157.38;4902835;29;20055;-75
2021/01/22 04:29:40;;;;;;;3.05;0.90;;;;;;;7.48;90.74;98167.38;4899340;29;20032;-77
2021/01/22 04:32:07;;;;;;;2.03;0.73;;;;;;;7.43;92.00;98222.72;4898536;29;20752;-78
2021/01/22 04:34:33;;;;;;;4.63;0.98;;;;;;;7.30;93.59;98253.91;4883120;29;20095;-77
2021/01/22 04:36:59;;;;;;;2.63;0.30;;;;;;;6.83;91.30;98263.84;4909343;29;20039;-78
2021/01/22 04:39:24;;;;;;;2.80;0.30;;;;;;;6.46;91.15;98277.78;4919759;29;20406;-78
2021/01/22 04:41:52;;;;;;;2.80;0.20;;;;;;;6.17;90.17;98295.03;4935716;29;20040;-78
2021/01/22 04:44:17;;;;;;;2.20;0.20;;;;;;;5.82;90.88;98307.66;4946989;29;20464;-79
2021/01/22 04:46:44;;;;;;;1.00;0.40;;;;;;;5.69;92.23;98326.47;4890741;29;20042;-79
2021/01/22 04:49:10;;;;;;;0.45;0.20;;;;;;;5.47;91.17;98339.28;4922344;29;20113;-78
2021/01/22 04:51:37;;;;;;;1.35;0.20;;;;;;;5.11;91.12;98367.59;4908899;29;20136;-78
2021/01/22 04:54:17;;;;;;;0.20;0.20;;;;;;;4.77;92.04;98370.50;4935580;29;20036;-78
2021/01/22 04:56:45;;;;;;;2.47;0.43;;;;;;;4.59;92.92;98378.50;4904218;29;20122;-78
2021/01/22 04:59:35;;;;;;;0.80;0.40;;;;;;;4.26;94.82;98394.94;4915229;29;20045;-77
2021/01/22 05:02:01;;;;;;;0.82;0.40;;;;;;;4.07;93.89;98400.47;4928836;29;20041;-77
2021/01/22 05:04:27;;;;;;;0.30;0.30;;;;;;;3.90;93.54;98422.97;4923101;29;20051;-76
2021/01/22 05:06:54;;;;;;;0.73;0.30;;;;;;;3.76;93.58;98428.78;4903137;29;20542;-78
2021/01/22 05:09:19;;;;;;;0.93;0.40;;;;;;;3.75;93.60;98443.53;4922727;29;20299;-77
2021/01/22 05:11:52;;;;;;;0.68;0.20;;;;;;;3.51;93.75;98454.66;4937630;29;20114;-77
2021/01/22 05:14:18;;;;;;;0.20;0.15;;;;;;;3.34;94.33;98474.50;4898908;29;20036;-77
2021/01/22 05:17:08;;;;;;;0.68;0.30;;;;;;;3.32;93.59;98481.63;4906728;29;20043;-78
2021/01/22 05:19:35;;;;;;;1.30;0.30;;;;;;;3.21;93.31;98500.03;4890115;29;20033;-79
2021/01/22 05:22:01;;;;;;;0.20;0.20;;;;;;;3.08;94.07;98514.19;4922110;29;20062;-77
2021/01/22 05:24:28;;;;;;;0.30;0.30;;;;;;;2.97;94.75;98517.03;4887435;29;20048;-78
2021/01/22 05:27:05;;;;;;;0.32;0.32;;;;;;;2.90;94.06;98519.44;4925608;29;20140;-76
2021/01/22 05:29:32;;;;;;;1.52;0.40;;;;;;;2.91;94.20;98540.97;4913011;29;20028;-77
2021/01/22 05:31:58;;;;;;;0.60;0.30;;;;;;;2.74;94.36;98547.81;4936423;29;20122;-77
2021/01/22 05:34:43;;;;;;;1.38;0.30;;;;;;;2.75;94.08;98566.72;4921526;29;20409;-77
2021/01/22 05:37:08;;;;;;;0.57;0.30;;;;;;;2.73;92.79;98549.59;4946894;29;20044;-78
2021/01/22 05:39:34;;;;;;;0.73;0.40;;;;;;;2.67;93.65;98572.66;4903577;29;20129;-78
2021/01/22 05:42:00;;;;;;;0.30;0.30;;;;;;;2.53;93.88;98582.56;4915937;29;20039;-79
2021/01/22 05:44:26;;;;;;;0.30;0.30;;;;;;;2.54;94.32;98596.31;4930268;29;20095;-78
2021/01/22 05:47:03;;;;;;;0.57;0.57;;;;;;;2.52;93.91;98606.84;4911920;29;20096;-78
2021/01/22 05:49:29;;;;;;;3.90;0.88;;;;;;;2.52;93.54;98624.13;4922347;29;20039;-77
2021/01/22 05:51:54;;;;;;;1.42;1.27;;;;;;;2.37;93.96;98618.63;4938149;29;20095;-76
2021/01/22 05:54:38;;;;;;;1.80;1.55;;;;;;;2.51;94.28;98627.69;4936424;29;20068;-76
2021/01/22 05:57:05;;;;;;;4.03;1.90;;;;;;;2.52;93.55;98637.06;4899726;29;20133;-77
2021/01/22 05:59:32;;;;;;;2.53;1.77;;;;;;;2.51;93.94;98666.50;4919964;29;20035;-77
2021/01/22 06:01:58;;;;;;;4.13;1.95;;;;;;;2.40;93.49;98652.00;4903188;29;20123;-76
2021/01/22 06:04:24;;;;;;;3.35;2.13;;;;;;;2.39;92.99;98663.28;4921427;29;20039;-77
2021/01/22 06:06:50;;;;;;;3.38;2.05;;;;;;;2.39;94.02;98665.06;4935987;29;20056;-77
2021/01/22 06:09:31;;;;;;;3.40;2.08;;;;;;;2.33;93.43;98663.88;4936690;29;20031;-76
2021/01/22 06:12:00;;;;;;;2.30;2.10;;;;;;;2.51;92.80;98679.44;4924105;29;20043;-79
2021/01/22 06:14:32;;;;;;;2.22;2.00;;;;;;;2.43;93.00;98680.19;4898583;29;20036;-77
2021/01/22 06:16:59;;;;;;;2.40;2.20;;;;;;;2.40;93.48;98680.44;4898475;29;20048;-76
2021/01/22 06:19:28;;;;;;;3.33;2.40;;;;;;;2.44;93.50;98691.34;4883083;29;20139;-76
2021/01/22 06:22:03;;;;;;;2.45;2.15;;;;;;;2.46;92.92;98697.97;4882919;29;20040;-77
2021/01/22 06:24:29;;;;;;;3.15;2.03;;;;;;;2.42;93.01;98698.44;4898355;29;20056;-78
2021/01/22 06:26:55;;;;;;;2.15;1.90;;;;;;;2.52;92.59;98717.28;4884722;29;20055;-78
2021/01/22 06:29:22;;;;;;;2.97;2.05;;;;;;;2.36;93.52;98720.50;4905362;29;20026;-78
2021/01/22 06:31:48;;;;;;;3.75;2.25;;;;;;;2.43;93.80;98725.91;4936562;29;20094;-78
2021/01/22 06:34:16;;;;;;;3.08;2.05;;;;;;;2.37;93.13;98723.91;4920284;29;20047;-77
2021/01/22 06:36:45;;;;;;;2.67;2.40;;;;;;;2.44;93.49;98736.13;4952017;29;20074;-78
2021/01/22 06:39:12;;;;;;;4.75;2.35;;;;;;;2.37;93.41;98724.72;4935710;29;20043;-78
2021/01/22 06:41:38;;;;;;;3.30;2.25;;;;;;;2.49;93.24;98741.69;4902750;29;20055;-78
2021/01/22 06:44:04;;;;;;;2.85;2.50;;;;;;;2.39;93.90;98740.09;4919291;29;20490;-78
2021/01/22 06:46:34;;;;;;;3.85;2.63;;;;;;;2.43;93.19;98752.63;4935616;29;20048;-76
2021/01/22 06:49:02;;;;;;;5.18;2.30;;;;;;;2.42;93.46;98748.41;4930864;29;20107;-77
2021/01/22 06:51:35;;;;;;;3.25;2.45;;;;;;;2.46;92.70;98754.91;4929288;29;20039;-78
2021/01/22 06:54:16;;;;;;;3.38;2.70;;;;;;;2.32;93.18;98753.63;4919605;29;20122;-79
2021/01/22 06:56:51;;;;;;;3.03;2.50;;;;;;;2.42;93.20;98776.84;4899455;29;20036;-76
2021/01/22 06:59:20;;;;;;;8.07;2.75;;;;;;;2.36;93.68;98774.84;4911835;29;20096;-77
2021/01/22 07:01:46;;;;;;;3.42;3.08;;;;;;;2.27;92.88;98773.09;4933571;29;20486;-78
2021/01/22 07:04:30;;;;;;;5.78;3.10;;;;;;;2.40;93.08;98793.50;4897658;29;20522;-77
2021/01/22 07:07:03;;;;;;;4.25;3.30;;;;;;;2.25;92.96;98785.38;4898448;29;20045;-78
2021/01/22 07:09:50;;;;;;;5.05;3.55;;;;;;;2.35;93.20;98809.44;4905184;29;20031;-77
2021/01/22 07:12:34;;;;;;;8.15;3.70;;;;;;;2.36;93.64;98812.84;4895720;29;20110;-77
2021/01/22 07:15:00;;;;;;;6.78;4.75;;;;;;;2.37;93.27;98812.69;4941145;29;20044;-78
2021/01/22 07:17:28;;;;;;;6.18;4.75;;;;;;;2.40;93.00;98822.78;4884977;29;20430;-78
2021/01/22 07:20:12;;;;;;;9.07;6.10;;;;;;;2.38;92.90;98829.06;4916201;29;20036;-78
2021/01/22 07:22:50;;;;;;;8.93;6.95;;;;;;;2.36;93.03;98826.59;4929453;29;20044;-77
2021/01/22 07:25:37;;;;;;;12.00;7.10;;;;;;;2.40;93.02;98832.31;4900434;29;20122;-75
2021/01/22 07:28:04;;;;;;;11.70;6.82;;;;;;;2.33;93.45;98838.03;4912747;29;20062;-78
2021/01/22 07:30:37;;;;;;;8.88;7.05;;;;;;;2.44;92.65;98849.19;4935248;29;20035;-78
2021/01/22 07:33:22;;;;;;;9.27;6.85;;;;;;;2.52;92.72;98857.06;4919709;29;20039;-77
2021/01/22 07:35:48;;;;;;;10.75;7.28;;;;;;;2.52;92.64;98855.31;4934785;29;20561;-78
2021/01/22 07:38:22;;;;;;;9.07;6.88;;;;;;;2.59;92.43;98860.72;4934949;29;20035;-77
2021/01/22 07:40:47;;;;;;;9.02;6.97;;;;;;;2.59;91.80;98865.88;4946065;29;20043;-78
2021/01/22 07:43:13;;;;;;;12.20;6.95;;;;;;;2.63;91.60;98867.22;4888111;29;20039;-78
2021/01/22 07:45:39;;;;;;;12.73;7.00;;;;;;;2.67;92.21;98871.16;4934399;29;20114;-78
2021/01/22 07:48:04;;;;;;;11.18;7.07;;;;;;;2.67;92.12;98875.53;4930101;29;20123;-78
2021/01/22 07:50:31;;;;;;;13.82;7.05;;;;;;;2.71;91.80;98876.88;4912322;29;20033;-78
2021/01/22 07:52:57;;;;;;;11.45;6.63;;;;;;;2.69;91.64;98871.88;4897303;29;20040;-77
2021/01/22 07:55:23;;;;;;;11.93;7.13;;;;;;;2.72;91.71;98894.06;4900225;29;20067;-76
2021/01/22 07:58:06;;;;;;;9.10;6.88;;;;;;;2.80;91.35;98890.75;4913329;29;20164;-78
2021/01/22 08:00:38;;;;;;;12.02;7.38;;;;;;;2.83;91.76;98888.69;4952367;29;20091;-78
2021/01/22 08:03:04;;;;;;;12.55;7.25;;;;;;;2.80;91.48;98890.75;4935824;29;20052;-78
2021/01/22 08:05:31;;;;;;;12.32;7.35;;;;;;;2.82;91.85;98889.66;4951262;28;20047;-77
2021/01/22 08:07:56;;;;;;;11.70;7.30;;;;;;;2.83;91.39;98886.09;4924118;29;20051;-79
2021/01/22 08:10:28;;;;;;;12.68;7.07;;;;;;;2.83;91.30;98887.88;4887674;29;20032;-77
2021/01/22 08:12:56;;;;;;;11.80;8.13;;;;;;;2.88;91.44;98898.63;4909659;29;20039;-79
2021/01/22 08:15:23;;;;;;;13.73;7.65;;;;;;;2.95;90.54;98898.88;4913931;29;20040;-77
2021/01/22 08:17:49;;;;;;;18.55;7.75;;;;;;;2.97;91.39;98896.97;4924786;29;20035;-78
2021/01/22 08:20:17;;;;;;;13.85;7.60;;;;;;;2.95;91.53;98898.88;4926465;29;20060;-77
2021/01/22 08:22:43;;;;;;;13.40;8.02;;;;;;;2.97;90.86;98899.53;4933040;29;20536;-79
2021/01/22 08:25:09;;;;;;;15.52;8.02;;;;;;;3.01;90.82;98906.06;4928633;29;20063;-77
2021/01/22 08:27:35;;;;;;;13.80;7.60;;;;;;;3.00;90.41;98907.03;4906335;29;20107;-77
2021/01/22 08:30:03;;;;;;;12.98;8.20;;;;;;;3.03;89.81;98923.13;4898467;29;20043;-77
2021/01/22 08:32:29;;;;;;;11.00;7.32;;;;;;;2.97;90.30;98908.13;4903172;29;20040;-77
2021/01/22 08:34:56;;;;;;;13.90;8.38;;;;;;;3.04;90.67;98924.72;4904258;29;20040;-79
2021/01/22 08:37:22;;;;;;;15.38;8.27;;;;;;;3.05;89.85;98928.97;4900425;29;20048;-78
2021/01/22 08:39:58;;;;;;;11.98;8.18;;;;;;;3.05;89.70;98934.16;4927220;29;20094;-77
2021/01/22 08:42:28;;;;;;;13.43;7.70;;;;;;;3.07;90.09;98932.22;4933161;29;20032;-77
2021/01/22 08:45:03;;;;;;;14.80;7.68;;;;;;;3.06;89.02;98924.59;4917340;29;20043;-78
2021/01/22 08:47:30;;;;;;;12.43;7.80;;;;;;;3.11;89.46;98948.31;4918353;29;20406;-76
2021/01/22 08:50:00;;;;;;;12.85;7.60;;;;;;;3.09;89.90;98942.47;4919982;29;20035;-77
2021/01/22 08:52:27;;;;;;;14.98;7.78;;;;;;;3.14;89.49;98947.19;4919299;29;20474;-77
2021/01/22 08:54:55;;;;;;;16.52;7.07;;;;;;;3.09;89.38;98938.09;4933835;29;20031;-77
2021/01/22 08:57:22;;;;;;;15.68;7.68;;;;;;;3.11;89.17;98943.13;4899448;29;20040;-76
2021/01/22 08:59:58;;;;;;;14.30;8.50;;;;;;;3.13;89.21;98948.97;4866695;29;20123;-77
2021/01/22 09:02:59;;;;;;;16.75;7.70;;;;;;;3.17;88.45;98958.09;4896036;29;20452;-77
2021/01/22 09:05:25;;;;;;;13.23;7.60;;;;;;;3.19;88.62;98969.13;4917333;29;20055;-78
2021/01/22 09:08:22;;;;;;;14.25;8.05;;;;;;;3.19;89.21;98974.31;4917746;29;20086;-77
2021/01/22 09:10:49;;;;;;;10.65;7.15;;;;;;;3.22;88.74;98981.81;4915335;29;20410;-77
2021/01/22 09:13:18;;;;;;;12.38;8.00;;;;;;;3.23;88.53;98982.63;4895662;29;20120;-77
2021/01/22 09:15:45;;;;;;;17.63;7.88;;;;;;;3.25;88.72;98985.88;4910201;29;20040;-76
2021/01/22 09:18:16;;;;;;;11.68;7.80;;;;;;;3.26;88.76;98988.34;4916148;29;20067;-78
2021/01/22 09:20:44;;;;;;;13.48;8.00;;;;;;;3.29;88.21;98993.22;4913946;29;20419;-77
2021/01/22 09:23:10;;;;;;;10.93;8.05;;;;;;;3.32;89.01;98994.72;4925776;29;20040;-77
2021/01/22 09:25:36;;;;;;;14.43;8.40;;;;;;;3.34;87.66;99000.56;4919154;29;20040;-77
2021/01/22 09:28:01;;;;;;;12.98;8.43;;;;;;;3.39;88.45;98995.78;4914433;29;20127;-77
2021/01/22 09:30:28;;;;;;;18.08;7.68;;;;;;;3.43;88.53;98996.31;4897867;29;20028;-77
2021/01/22 09:32:55;;;;;;;16.77;8.60;;;;;;;3.39;88.31;98992.34;4930366;29;20051;-78
2021/01/22 09:35:23;;;;;;;12.57;8.48;;;;;;;3.42;87.70;98995.47;4897525;29;20048;-77
2021/01/22 09:37:49;;;;;;;12.55;8.48;;;;;;;3.43;87.77;98994.53;4914175;29;20038;-77
2021/01/22 09:40:15;;;;;;;12.80;8.13;;;;;;;3.46;86.49;98994.22;4922402;29;20031;-77
2021/01/22 09:42:41;;;;;;;10.27;7.93;;;;;;;3.51;87.25;98992.03;4920684;29;20497;-77
2021/01/22 09:45:09;;;;;;;13.63;8.40;;;;;;;3.48;87.05;98983.72;4909706;29;20051;-78
2021/01/22 09:47:35;;;;;;;14.90;7.50;;;;;;;3.52;85.70;98995.44;4920439;29;20036;-77
2021/01/22 09:50:02;;;;;;;11.20;8.13;;;;;;;3.53;86.01;98991.09;4913337;29;20050;-77
2021/01/22 09:52:28;;;;;;;16.10;8.48;;;;;;;3.58;86.07;99007.00;4921339;29;20052;-78
2021/01/22 09:54:55;;;;;;;20.65;8.15;;;;;;;3.64;86.36;99007.25;4898924;29;20091;-78
2021/01/22 09:57:20;;;;;;;12.75;8.02;;;;;;;3.62;85.35;99016.97;4884718;29;20107;-78
2021/01/22 09:59:46;;;;;;;16.25;8.35;;;;;;;3.52;86.16;99005.81;4901705;29;20095;-78
2021/01/22 10:02:11;;;;;;;12.70;8.85;;;;;;;3.61;85.82;99009.31;4917305;29;20091;-78
2021/01/22 10:04:38;;;;;;;16.15;9.30;;;;;;;3.65;85.93;99010.66;4907577;29;20114;-77
2021/01/22 10:07:04;;;;;;;12.00;8.60;;;;;;;3.76;85.71;99022.63;4936618;29;20044;-76
2021/01/22 10:09:30;;;;;;;13.13;8.57;;;;;;;3.87;85.35;99023.22;4933447;29;20031;-77
2021/01/22 10:11:56;;;;;;;15.82;9.43;;;;;;;4.01;85.92;99029.72;4911955;29;20032;-76
2021/01/22 10:14:21;;;;;;;15.35;8.75;;;;;;;4.09;84.78;99026.38;4922591;29;20099;-78
2021/01/22 10:16:47;;;;;;;18.48;8.50;;;;;;;4.17;85.50;99041.22;4907796;29;20035;-78
2021/01/22 10:19:12;;;;;;;13.65;8.10;;;;;;;4.29;84.47;99047.81;4914767;29;20036;-78
2021/01/22 10:21:38;;;;;;;14.73;8.43;;;;;;;4.42;84.76;99050.06;4889758;29;20035;-76
2021/01/22 10:24:04;;;;;;;17.27;8.90;;;;;;;4.42;83.50;99057.84;4918291;29;20046;-77
2021/01/22 10:26:29;;;;;;;15.80;8.40;;;;;;;4.38;84.27;99056.50;4916417;29;20036;-79
2021/01/22 10:28:55;;;;;;;11.85;7.70;;;;;;;4.34;83.79;99061.19;4887048;29;20041;-77
2021/01/22 10:31:21;;;;;;;14.73;8.13;;;;;;;4.25;84.09;99057.69;4886108;29;20098;-79
2021/01/22 10:33:47;;;;;;;15.73;8.40;;;;;;;4.34;85.78;99073.34;4915734;29;20036;-76
2021/01/22 10:36:14;;;;;;;16.10;7.88;;;;;;;4.36;84.53;99069.63;4919014;29;20043;-77
2021/01/22 10:38:40;;;;;;;11.38;7.63;;;;;;;4.33;84.23;99064.72;4884196;29;20097;-77
2021/01/22 10:41:06;;;;;;;10.55;6.82;;;;;;;4.28;83.39;99074.75;4913734;29;20033;-76
2021/01/22 10:43:31;;;;;;;16.98;7.63;;;;;;;4.31;84.40;99076.22;4883919;29;20039;-77
2021/01/22 10:45:57;;;;;;;10.68;6.35;;;;;;;4.29;83.74;99084.16;4897421;29;20050;-77
2021/01/22 10:48:24;;;;;;;14.00;7.20;;;;;;;4.36;83.89;99080.00;4881287;29;20037;-76
2021/01/22 10:50:50;;;;;;;12.18;6.20;;;;;;;4.36;82.84;99077.41;4915023;29;20613;-78
2021/01/22 10:53:19;;;;;;;12.93;5.88;;;;;;;4.37;82.75;99091.22;4910552;29;20042;-77
2021/01/22 10:55:46;;;;;;;11.00;6.15;;;;;;;4.31;83.37;99092.59;4922164;29;20054;-78
2021/01/22 10:58:11;;;;;;;14.80;6.00;;;;;;;4.39;83.55;99097.06;4883636;29;20044;-77
2021/01/22 11:00:37;;;;;;;12.57;6.13;;;;;;;4.45;81.92;99092.13;4920949;29;20048;-77
2021/01/22 11:03:04;;;;;;;12.32;5.65;;;;;;;4.43;81.92;99093.25;4918463;29;20038;-77
2021/01/22 11:05:29;;;;;;;14.45;5.88;;;;;;;4.47;81.69;99099.75;4942008;28;20120;-77
2021/01/22 11:07:55;;;;;;;11.23;5.80;;;;;;;4.52;81.60;99097.56;4876831;29;20035;-76
2021/01/22 11:10:21;;;;;;;10.50;5.30;;;;;;;4.50;81.58;99099.44;4934173;29;20044;-76
2021/01/22 11:12:48;;;;;;;10.45;5.18;;;;;;;4.54;80.75;99094.78;4884793;29;20032;-78
2021/01/22 11:15:13;;;;;;;13.20;5.00;;;;;;;4.51;81.37;99095.91;4889393;29;20040;-76
2021/01/22 11:17:39;;;;;;;10.60;5.20;;;;;;;4.56;81.04;99098.03;4897215;29;20116;-80
2021/01/22 11:20:05;;;;;;;11.15;5.20;;;;;;;4.58;80.73;99106.53;4898524;29;20068;-78
2021/01/22 11:22:31;;;;;;;15.38;5.43;;;;;;;4.54;81.27;99110.34;4908783;29;20040;-79
2021/01/22 11:24:57;;;;;;;14.80;5.68;;;;;;;4.52;81.87;99100.16;4912252;29;20132;-76
2021/01/22 11:27:23;;;;;;;12.63;5.40;;;;;;;4.51;80.30;99108.88;4901633;29;20067;-78
2021/01/22 11:29:49;;;;;;;12.77;4.95;;;;;;;4.51;79.92;99114.06;4924173;29;20024;-77
2021/01/22 11:32:15;;;;;;;12.77;5.53;;;;;;;4.54;79.67;99115.56;4915514;29;20043;-78
2021/01/22 11:34:40;;;;;;;12.60;5.40;;;;;;;4.58;81.06;99114.31;4915610;29;20063;-77
2021/01/22 11:37:06;;;;;;;14.65;5.35;;;;;;;4.59;80.50;99121.13;4929249;29;20070;-77
2021/01/22 11:39:35;;;;;;;12.02;5.40;;;;;;;4.55;81.17;99123.19;4918189;29;20078;-78
2021/01/22 11:42:05;;;;;;;11.20;5.28;;;;;;;4.59;80.73;99124.53;4934325;29;20039;-78
2021/01/22 11:44:31;;;;;;;9.48;4.95;;;;;;;4.61;80.57;99122.59;4940586;29;20043;-78